sensor_id;sensor_type;location;lat;lon;timestamp;temperature;humidity
15934;DHT22;8066;48.776;11.384;2022-07-26T00:00:18;29.00;48.90
15934;DHT22;8066;48.776;11.384;2022-07-26T00:02:45;29.00;49.30
15934;DHT22;8066;48.776;11.384;2022-07-26T00:05:12;28.90;49.10
15934;DHT22;8066;48.776;11.384;2022-07-26T00:07:39;28.90;49.20
15934;DHT22;8066;48.776;11.384;2022-07-26T00:10:07;28.90;49.30
15934;DHT22;8066;48.776;11.384;2022-07-26T00:12:34;28.80;49.40
15934;DHT22;8066;48.776;11.384;2022-07-26T00:15:01;28.80;49.60
15934;DHT22;8066;48.776;11.384;2022-07-26T00:17:30;28.70;49.70
15934;DHT22;8066;48.776;11.384;2022-07-26T00:19:57;28.60;50.00
15934;DHT22;8066;48.776;11.384;2022-07-26T00:22:24;28.60;50.00
15934;DHT22;8066;48.776;11.384;2022-07-26T00:25:01;28.60;50.10
15934;DHT22;8066;48.776;11.384;2022-07-26T00:27:28;28.50;50.40
15934;DHT22;8066;48.776;11.384;2022-07-26T00:29:55;28.50;50.50
15934;DHT22;8066;48.776;11.384;2022-07-26T00:32:22;28.40;50.60
15934;DHT22;8066;48.776;11.384;2022-07-26T00:34:51;28.40;50.80
15934;DHT22;8066;48.776;11.384;2022-07-26T00:37:19;28.30;51.00
15934;DHT22;8066;48.776;11.384;2022-07-26T00:39:45;28.30;50.90
15934;DHT22;8066;48.776;11.384;2022-07-26T00:42:12;28.20;51.00
15934;DHT22;8066;48.776;11.384;2022-07-26T00:44:40;28.20;51.20
15934;DHT22;8066;48.776;11.384;2022-07-26T00:47:09;28.20;51.40
15934;DHT22;8066;48.776;11.384;2022-07-26T00:49:36;28.20;51.40
15934;DHT22;8066;48.776;11.384;2022-07-26T00:52:06;28.20;51.60
15934;DHT22;8066;48.776;11.384;2022-07-26T00:54:35;28.20;51.90
15934;DHT22;8066;48.776;11.384;2022-07-26T00:57:03;28.10;51.80
15934;DHT22;8066;48.776;11.384;2022-07-26T00:59:30;28.10;51.80
15934;DHT22;8066;48.776;11.384;2022-07-26T01:01:57;28.10;51.80
15934;DHT22;8066;48.776;11.384;2022-07-26T01:04:24;28.00;51.80
15934;DHT22;8066;48.776;11.384;2022-07-26T01:06:52;28.00;51.90
15934;DHT22;8066;48.776;11.384;2022-07-26T01:09:20;28.00;52.00
15934;DHT22;8066;48.776;11.384;2022-07-26T01:11:48;28.00;52.30
15934;DHT22;8066;48.776;11.384;2022-07-26T01:14:18;27.90;52.10
15934;DHT22;8066;48.776;11.384;2022-07-26T01:16:46;27.90;52.40
15934;DHT22;8066;48.776;11.384;2022-07-26T01:19:12;27.90;52.30
15934;DHT22;8066;48.776;11.384;2022-07-26T01:21:41;27.90;52.40
15934;DHT22;8066;48.776;11.384;2022-07-26T01:24:08;27.90;52.50
15934;DHT22;8066;48.776;11.384;2022-07-26T01:26:35;27.90;52.60
15934;DHT22;8066;48.776;11.384;2022-07-26T01:29:02;27.80;52.50
15934;DHT22;8066;48.776;11.384;2022-07-26T01:31:29;27.80;52.60
15934;DHT22;8066;48.776;11.384;2022-07-26T01:33:56;27.80;52.70
15934;DHT22;8066;48.776;11.384;2022-07-26T01:36:23;27.80;52.80
15934;DHT22;8066;48.776;11.384;2022-07-26T01:38:52;27.90;52.90
15934;DHT22;8066;48.776;11.384;2022-07-26T01:41:19;27.80;53.10
15934;DHT22;8066;48.776;11.384;2022-07-26T01:43:46;27.70;52.90
15934;DHT22;8066;48.776;11.384;2022-07-26T01:46:12;27.70;53.00
15934;DHT22;8066;48.776;11.384;2022-07-26T01:48:39;27.70;53.10
15934;DHT22;8066;48.776;11.384;2022-07-26T01:51:06;27.70;53.10
15934;DHT22;8066;48.776;11.384;2022-07-26T01:53:33;27.70;53.20
15934;DHT22;8066;48.776;11.384;2022-07-26T01:56:01;27.60;53.30
15934;DHT22;8066;48.776;11.384;2022-07-26T01:58:28;27.80;53.50
15934;DHT22;8066;48.776;11.384;2022-07-26T02:00:55;27.60;53.30
15934;DHT22;8066;48.776;11.384;2022-07-26T02:03:22;27.60;53.30
15934;DHT22;8066;48.776;11.384;2022-07-26T02:05:49;27.60;53.40
15934;DHT22;8066;48.776;11.384;2022-07-26T02:08:15;27.60;53.50
15934;DHT22;8066;48.776;11.384;2022-07-26T02:10:42;27.50;53.60
15934;DHT22;8066;48.776;11.384;2022-07-26T02:13:30;27.50;53.60
15934;DHT22;8066;48.776;11.384;2022-07-26T02:15:58;27.50;53.90
15934;DHT22;8066;48.776;11.384;2022-07-26T02:18:26;27.40;53.70
15934;DHT22;8066;48.776;11.384;2022-07-26T02:20:54;27.40;53.80
15934;DHT22;8066;48.776;11.384;2022-07-26T02:23:22;27.40;53.80
15934;DHT22;8066;48.776;11.384;2022-07-26T02:25:50;27.40;53.90
15934;DHT22;8066;48.776;11.384;2022-07-26T02:28:17;27.30;53.70
15934;DHT22;8066;48.776;11.384;2022-07-26T02:30:46;27.30;53.80
15934;DHT22;8066;48.776;11.384;2022-07-26T02:33:14;27.30;54.00
15934;DHT22;8066;48.776;11.384;2022-07-26T02:35:42;27.40;54.00
15934;DHT22;8066;48.776;11.384;2022-07-26T02:38:12;27.30;53.90
15934;DHT22;8066;48.776;11.384;2022-07-26T02:40:41;27.30;54.00
15934;DHT22;8066;48.776;11.384;2022-07-26T02:43:08;27.30;54.10
15934;DHT22;8066;48.776;11.384;2022-07-26T02:45:36;27.30;54.10
15934;DHT22;8066;48.776;11.384;2022-07-26T02:48:05;27.30;54.00
15934;DHT22;8066;48.776;11.384;2022-07-26T02:50:33;27.30;54.10
15934;DHT22;8066;48.776;11.384;2022-07-26T02:53:00;27.30;54.00
15934;DHT22;8066;48.776;11.384;2022-07-26T02:55:27;27.30;54.10
15934;DHT22;8066;48.776;11.384;2022-07-26T02:57:54;27.20;54.10
15934;DHT22;8066;48.776;11.384;2022-07-26T03:00:23;27.20;54.10
15934;DHT22;8066;48.776;11.384;2022-07-26T03:02:51;27.20;54.30
15934;DHT22;8066;48.776;11.384;2022-07-26T03:05:20;27.20;54.20
15934;DHT22;8066;48.776;11.384;2022-07-26T03:07:47;27.20;54.30
15934;DHT22;8066;48.776;11.384;2022-07-26T03:10:14;27.20;54.20
15934;DHT22;8066;48.776;11.384;2022-07-26T03:12:42;27.20;54.20
15934;DHT22;8066;48.776;11.384;2022-07-26T03:15:10;27.20;54.10
15934;DHT22;8066;48.776;11.384;2022-07-26T03:17:37;27.20;54.10
15934;DHT22;8066;48.776;11.384;2022-07-26T03:20:05;27.10;53.90
15934;DHT22;8066;48.776;11.384;2022-07-26T03:22:34;27.10;54.00
15934;DHT22;8066;48.776;11.384;2022-07-26T03:25:01;27.10;53.90
15934;DHT22;8066;48.776;11.384;2022-07-26T03:27:28;26.90;53.80
15934;DHT22;8066;48.776;11.384;2022-07-26T03:29:55;27.10;53.90
15934;DHT22;8066;48.776;11.384;2022-07-26T03:32:21;27.10;53.80
15934;DHT22;8066;48.776;11.384;2022-07-26T03:34:48;27.00;53.70
15934;DHT22;8066;48.776;11.384;2022-07-26T03:37:15;27.00;53.60
15934;DHT22;8066;48.776;11.384;2022-07-26T03:39:44;27.00;53.60
15934;DHT22;8066;48.776;11.384;2022-07-26T03:42:10;26.90;53.50
15934;DHT22;8066;48.776;11.384;2022-07-26T03:44:37;27.00;53.40
15934;DHT22;8066;48.776;11.384;2022-07-26T03:47:04;26.90;53.30
15934;DHT22;8066;48.776;11.384;2022-07-26T03:49:31;27.00;53.30
15934;DHT22;8066;48.776;11.384;2022-07-26T03:51:58;26.90;53.20
15934;DHT22;8066;48.776;11.384;2022-07-26T03:54:25;26.90;53.20
15934;DHT22;8066;48.776;11.384;2022-07-26T03:56:53;26.90;53.30
15934;DHT22;8066;48.776;11.384;2022-07-26T03:59:19;26.90;53.30
15934;DHT22;8066;48.776;11.384;2022-07-26T04:01:48;26.90;53.30
15934;DHT22;8066;48.776;11.384;2022-07-26T04:04:16;26.90;53.30
15934;DHT22;8066;48.776;11.384;2022-07-26T04:06:44;26.90;53.20
15934;DHT22;8066;48.776;11.384;2022-07-26T04:09:13;26.90;53.20
15934;DHT22;8066;48.776;11.384;2022-07-26T04:11:41;26.90;53.10
15934;DHT22;8066;48.776;11.384;2022-07-26T04:14:09;26.90;53.00
15934;DHT22;8066;48.776;11.384;2022-07-26T04:16:36;26.90;53.00
15934;DHT22;8066;48.776;11.384;2022-07-26T04:19:04;26.90;52.80
15934;DHT22;8066;48.776;11.384;2022-07-26T04:21:31;26.90;52.80
15934;DHT22;8066;48.776;11.384;2022-07-26T04:23:58;26.90;52.60
15934;DHT22;8066;48.776;11.384;2022-07-26T04:26:25;26.90;52.20
15934;DHT22;8066;48.776;11.384;2022-07-26T04:28:53;26.90;52.00
15934;DHT22;8066;48.776;11.384;2022-07-26T04:31:22;26.80;51.70
15934;DHT22;8066;48.776;11.384;2022-07-26T04:33:49;26.80;51.40
15934;DHT22;8066;48.776;11.384;2022-07-26T04:36:16;26.80;51.20
15934;DHT22;8066;48.776;11.384;2022-07-26T04:38:43;26.80;51.10
15934;DHT22;8066;48.776;11.384;2022-07-26T04:41:10;26.90;51.00
15934;DHT22;8066;48.776;11.384;2022-07-26T04:43:37;26.90;50.70
15934;DHT22;8066;48.776;11.384;2022-07-26T04:46:03;26.80;50.50
15934;DHT22;8066;48.776;11.384;2022-07-26T04:48:32;26.80;50.30
15934;DHT22;8066;48.776;11.384;2022-07-26T04:50:59;26.90;50.10
15934;DHT22;8066;48.776;11.384;2022-07-26T04:53:26;26.80;50.10
15934;DHT22;8066;48.776;11.384;2022-07-26T04:55:53;26.90;50.10
15934;DHT22;8066;48.776;11.384;2022-07-26T04:58:19;26.80;50.00
15934;DHT22;8066;48.776;11.384;2022-07-26T05:00:46;26.90;50.00
15934;DHT22;8066;48.776;11.384;2022-07-26T05:03:13;26.90;49.90
15934;DHT22;8066;48.776;11.384;2022-07-26T05:05:41;26.90;49.80
15934;DHT22;8066;48.776;11.384;2022-07-26T05:08:08;26.90;49.80
15934;DHT22;8066;48.776;11.384;2022-07-26T05:10:36;26.90;49.60
15934;DHT22;8066;48.776;11.384;2022-07-26T05:13:04;26.90;49.60
15934;DHT22;8066;48.776;11.384;2022-07-26T05:15:34;26.90;49.50
15934;DHT22;8066;48.776;11.384;2022-07-26T05:18:04;26.90;49.50
15934;DHT22;8066;48.776;11.384;2022-07-26T05:20:32;26.90;49.30
15934;DHT22;8066;48.776;11.384;2022-07-26T05:23:01;26.90;49.40
15934;DHT22;8066;48.776;11.384;2022-07-26T05:25:28;26.90;49.20
15934;DHT22;8066;48.776;11.384;2022-07-26T05:27:55;27.00;49.30
15934;DHT22;8066;48.776;11.384;2022-07-26T05:30:22;26.90;49.10
15934;DHT22;8066;48.776;11.384;2022-07-26T05:32:49;26.90;49.10
15934;DHT22;8066;48.776;11.384;2022-07-26T05:35:17;26.90;49.10
15934;DHT22;8066;48.776;11.384;2022-07-26T05:37:43;26.80;48.90
15934;DHT22;8066;48.776;11.384;2022-07-26T05:40:12;27.00;49.00
15934;DHT22;8066;48.776;11.384;2022-07-26T05:42:39;27.00;48.80
15934;DHT22;8066;48.776;11.384;2022-07-26T05:45:08;27.00;48.80
15934;DHT22;8066;48.776;11.384;2022-07-26T05:47:35;27.00;48.80
15934;DHT22;8066;48.776;11.384;2022-07-26T05:50:03;27.00;48.70
15934;DHT22;8066;48.776;11.384;2022-07-26T05:52:30;27.00;48.80
15934;DHT22;8066;48.776;11.384;2022-07-26T05:54:57;27.00;48.80
15934;DHT22;8066;48.776;11.384;2022-07-26T05:57:26;27.20;48.80
15934;DHT22;8066;48.776;11.384;2022-07-26T05:59:53;27.20;48.80
15934;DHT22;8066;48.776;11.384;2022-07-26T06:02:19;27.10;48.60
15934;DHT22;8066;48.776;11.384;2022-07-26T06:04:46;27.20;48.60
15934;DHT22;8066;48.776;11.384;2022-07-26T06:07:13;27.20;48.70
15934;DHT22;8066;48.776;11.384;2022-07-26T06:09:40;27.30;49.30
15934;DHT22;8066;48.776;11.384;2022-07-26T06:12:07;27.40;48.70
15934;DHT22;8066;48.776;11.384;2022-07-26T06:14:36;27.40;48.70
15934;DHT22;8066;48.776;11.384;2022-07-26T06:17:03;27.50;48.70
15934;DHT22;8066;48.776;11.384;2022-07-26T06:19:30;27.60;48.70
15934;DHT22;8066;48.776;11.384;2022-07-26T06:21:57;28.10;48.90
15934;DHT22;8066;48.776;11.384;2022-07-26T06:24:25;28.30;48.70
15934;DHT22;8066;48.776;11.384;2022-07-26T06:26:52;27.70;48.80
15934;DHT22;8066;48.776;11.384;2022-07-26T06:29:21;27.70;48.00
15934;DHT22;8066;48.776;11.384;2022-07-26T06:31:50;27.80;47.90
15934;DHT22;8066;48.776;11.384;2022-07-26T06:34:17;27.80;47.80
15934;DHT22;8066;48.776;11.384;2022-07-26T06:36:44;27.70;47.80
15934;DHT22;8066;48.776;11.384;2022-07-26T06:39:11;27.80;47.80
15934;DHT22;8066;48.776;11.384;2022-07-26T06:41:38;27.80;47.70
15934;DHT22;8066;48.776;11.384;2022-07-26T06:44:05;27.80;47.60
15934;DHT22;8066;48.776;11.384;2022-07-26T06:46:32;27.80;47.50
15934;DHT22;8066;48.776;11.384;2022-07-26T06:49:02;27.90;47.50
15934;DHT22;8066;48.776;11.384;2022-07-26T06:51:30;28.00;47.50
15934;DHT22;8066;48.776;11.384;2022-07-26T06:53:57;27.90;47.40
15934;DHT22;8066;48.776;11.384;2022-07-26T06:56:23;27.90;47.20
15934;DHT22;8066;48.776;11.384;2022-07-26T06:58:50;28.00;47.20
15934;DHT22;8066;48.776;11.384;2022-07-26T07:01:19;28.00;47.10
15934;DHT22;8066;48.776;11.384;2022-07-26T07:03:46;28.10;47.10
15934;DHT22;8066;48.776;11.384;2022-07-26T07:06:15;28.10;47.20
15934;DHT22;8066;48.776;11.384;2022-07-26T07:08:42;28.00;47.10
15934;DHT22;8066;48.776;11.384;2022-07-26T07:11:09;28.20;47.30
15934;DHT22;8066;48.776;11.384;2022-07-26T07:13:36;28.40;47.50
15934;DHT22;8066;48.776;11.384;2022-07-26T07:16:03;28.40;47.80
15934;DHT22;8066;48.776;11.384;2022-07-26T07:18:30;28.70;48.00
15934;DHT22;8066;48.776;11.384;2022-07-26T07:20:57;29.10;47.90
15934;DHT22;8066;48.776;11.384;2022-07-26T07:23:26;29.40;47.50
15934;DHT22;8066;48.776;11.384;2022-07-26T07:25:53;29.70;46.50
15934;DHT22;8066;48.776;11.384;2022-07-26T07:28:20;29.80;45.80
15934;DHT22;8066;48.776;11.384;2022-07-26T07:30:46;29.90;45.40
15934;DHT22;8066;48.776;11.384;2022-07-26T07:33:14;30.00;45.20
15934;DHT22;8066;48.776;11.384;2022-07-26T07:35:42;30.00;44.90
15934;DHT22;8066;48.776;11.384;2022-07-26T07:38:09;30.10;44.80
15934;DHT22;8066;48.776;11.384;2022-07-26T07:40:38;30.00;44.60
15934;DHT22;8066;48.776;11.384;2022-07-26T07:43:04;30.00;44.30
15934;DHT22;8066;48.776;11.384;2022-07-26T07:45:31;30.10;44.50
15934;DHT22;8066;48.776;11.384;2022-07-26T07:47:58;30.00;44.40
15934;DHT22;8066;48.776;11.384;2022-07-26T07:50:26;30.10;44.20
15934;DHT22;8066;48.776;11.384;2022-07-26T07:52:52;30.30;44.40
15934;DHT22;8066;48.776;11.384;2022-07-26T07:55:19;30.20;44.60
15934;DHT22;8066;48.776;11.384;2022-07-26T07:57:48;30.70;44.70
15934;DHT22;8066;48.776;11.384;2022-07-26T08:00:15;31.00;44.30
15934;DHT22;8066;48.776;11.384;2022-07-26T08:02:44;31.20;44.00
15934;DHT22;8066;48.776;11.384;2022-07-26T08:05:11;31.50;43.50
15934;DHT22;8066;48.776;11.384;2022-07-26T08:07:39;31.60;42.80
15934;DHT22;8066;48.776;11.384;2022-07-26T08:10:07;31.80;42.50
15934;DHT22;8066;48.776;11.384;2022-07-26T08:12:35;31.90;42.20
15934;DHT22;8066;48.776;11.384;2022-07-26T08:15:04;31.90;42.00
15934;DHT22;8066;48.776;11.384;2022-07-26T08:17:32;32.20;41.80
15934;DHT22;8066;48.776;11.384;2022-07-26T08:19:58;32.20;42.30
15934;DHT22;8066;48.776;11.384;2022-07-26T08:22:25;32.70;43.10
15934;DHT22;8066;48.776;11.384;2022-07-26T08:24:52;33.30;43.70
15934;DHT22;8066;48.776;11.384;2022-07-26T08:27:19;34.10;43.90
15934;DHT22;8066;48.776;11.384;2022-07-26T08:29:46;34.80;42.60
15934;DHT22;8066;48.776;11.384;2022-07-26T08:32:14;35.40;41.00
15934;DHT22;8066;48.776;11.384;2022-07-26T08:34:41;35.80;39.50
15934;DHT22;8066;48.776;11.384;2022-07-26T08:37:08;36.20;38.70
15934;DHT22;8066;48.776;11.384;2022-07-26T08:39:35;36.50;38.10
15934;DHT22;8066;48.776;11.384;2022-07-26T08:42:02;36.60;37.20
15934;DHT22;8066;48.776;11.384;2022-07-26T08:44:30;36.60;36.50
15934;DHT22;8066;48.776;11.384;2022-07-26T08:46:57;36.60;35.80
15934;DHT22;8066;48.776;11.384;2022-07-26T08:49:25;36.50;35.40
15934;DHT22;8066;48.776;11.384;2022-07-26T08:51:52;36.30;35.00
15934;DHT22;8066;48.776;11.384;2022-07-26T08:54:19;36.20;35.10
15934;DHT22;8066;48.776;11.384;2022-07-26T08:56:50;36.10;35.30
15934;DHT22;8066;48.776;11.384;2022-07-26T08:59:19;36.00;34.40
15934;DHT22;8066;48.776;11.384;2022-07-26T09:01:54;35.80;34.60
15934;DHT22;8066;48.776;11.384;2022-07-26T09:04:25;35.70;34.00
15934;DHT22;8066;48.776;11.384;2022-07-26T09:06:55;35.60;34.60
15934;DHT22;8066;48.776;11.384;2022-07-26T09:09:24;35.40;35.00
15934;DHT22;8066;48.776;11.384;2022-07-26T09:11:52;35.40;35.00
15934;DHT22;8066;48.776;11.384;2022-07-26T09:14:19;35.30;34.80
15934;DHT22;8066;48.776;11.384;2022-07-26T09:16:56;35.20;34.60
15934;DHT22;8066;48.776;11.384;2022-07-26T09:19:26;35.10;33.90
15934;DHT22;8066;48.776;11.384;2022-07-26T09:21:54;34.90;34.10
15934;DHT22;8066;48.776;11.384;2022-07-26T09:24:32;34.80;34.20
15934;DHT22;8066;48.776;11.384;2022-07-26T09:27:02;34.70;33.90
15934;DHT22;8066;48.776;11.384;2022-07-26T09:29:41;34.60;34.40
15934;DHT22;8066;48.776;11.384;2022-07-26T09:32:11;34.40;34.10
15934;DHT22;8066;48.776;11.384;2022-07-26T09:34:44;34.30;34.40
15934;DHT22;8066;48.776;11.384;2022-07-26T09:37:12;34.10;34.60
15934;DHT22;8066;48.776;11.384;2022-07-26T09:39:57;34.10;35.00
15934;DHT22;8066;48.776;11.384;2022-07-26T09:42:26;34.10;34.90
15934;DHT22;8066;48.776;11.384;2022-07-26T09:44:53;34.20;35.70
15934;DHT22;8066;48.776;11.384;2022-07-26T09:47:22;34.40;36.00
15934;DHT22;8066;48.776;11.384;2022-07-26T09:50:08;34.80;36.10
15934;DHT22;8066;48.776;11.384;2022-07-26T09:52:36;35.00;34.90
15934;DHT22;8066;48.776;11.384;2022-07-26T09:55:05;35.30;35.20
15934;DHT22;8066;48.776;11.384;2022-07-26T09:57:33;35.50;34.80
15934;DHT22;8066;48.776;11.384;2022-07-26T10:00:01;35.70;34.40
15934;DHT22;8066;48.776;11.384;2022-07-26T10:02:30;35.70;33.90
15934;DHT22;8066;48.776;11.384;2022-07-26T10:04:58;35.80;34.00
15934;DHT22;8066;48.776;11.384;2022-07-26T10:07:26;36.10;34.00
15934;DHT22;8066;48.776;11.384;2022-07-26T10:09:56;36.30;34.00
15934;DHT22;8066;48.776;11.384;2022-07-26T10:12:30;36.60;33.20
15934;DHT22;8066;48.776;11.384;2022-07-26T10:14:58;36.80;32.90
15934;DHT22;8066;48.776;11.384;2022-07-26T10:17:43;37.10;32.90
15934;DHT22;8066;48.776;11.384;2022-07-26T10:20:40;37.30;32.10
15934;DHT22;8066;48.776;11.384;2022-07-26T10:23:37;37.60;32.00
15934;DHT22;8066;48.776;11.384;2022-07-26T10:26:12;37.70;31.20
15934;DHT22;8066;48.776;11.384;2022-07-26T10:29:26;37.90;31.30
15934;DHT22;8066;48.776;11.384;2022-07-26T10:32:16;38.00;31.20
15934;DHT22;8066;48.776;11.384;2022-07-26T10:34:44;38.30;31.40
15934;DHT22;8066;48.776;11.384;2022-07-26T10:37:22;38.50;31.80
15934;DHT22;8066;48.776;11.384;2022-07-26T10:40:17;38.80;30.20
15934;DHT22;8066;48.776;11.384;2022-07-26T10:42:48;39.10;30.50
15934;DHT22;8066;48.776;11.384;2022-07-26T10:45:19;39.40;30.50
15934;DHT22;8066;48.776;11.384;2022-07-26T10:48:11;39.90;30.30
15934;DHT22;8066;48.776;11.384;2022-07-26T10:50:40;40.40;29.90
15934;DHT22;8066;48.776;11.384;2022-07-26T10:53:09;40.90;30.20
15934;DHT22;8066;48.776;11.384;2022-07-26T10:55:47;41.50;29.70
15934;DHT22;8066;48.776;11.384;2022-07-26T10:58:17;42.10;29.10
15934;DHT22;8066;48.776;11.384;2022-07-26T11:00:56;42.80;28.90
15934;DHT22;8066;48.776;11.384;2022-07-26T11:03:34;43.50;27.90
15934;DHT22;8066;48.776;11.384;2022-07-26T11:06:09;44.00;27.40
15934;DHT22;8066;48.776;11.384;2022-07-26T11:08:37;44.50;26.80
15934;DHT22;8066;48.776;11.384;2022-07-26T11:11:04;45.00;27.00
15934;DHT22;8066;48.776;11.384;2022-07-26T11:13:34;45.40;26.50
15934;DHT22;8066;48.776;11.384;2022-07-26T11:16:04;45.70;25.80
15934;DHT22;8066;48.776;11.384;2022-07-26T11:18:34;46.10;25.60
15934;DHT22;8066;48.776;11.384;2022-07-26T11:21:09;46.40;25.30
15934;DHT22;8066;48.776;11.384;2022-07-26T11:23:38;46.30;24.00
15934;DHT22;8066;48.776;11.384;2022-07-26T11:26:13;46.10;24.10
15934;DHT22;8066;48.776;11.384;2022-07-26T11:28:51;45.80;23.60
15934;DHT22;8066;48.776;11.384;2022-07-26T11:31:23;45.30;23.20
15934;DHT22;8066;48.776;11.384;2022-07-26T11:33:54;44.70;23.10
15934;DHT22;8066;48.776;11.384;2022-07-26T11:36:35;44.10;23.20
15934;DHT22;8066;48.776;11.384;2022-07-26T11:39:05;43.50;22.70
15934;DHT22;8066;48.776;11.384;2022-07-26T11:41:34;43.00;23.40
15934;DHT22;8066;48.776;11.384;2022-07-26T11:44:04;42.70;23.50
15934;DHT22;8066;48.776;11.384;2022-07-26T11:46:34;42.60;23.50
15934;DHT22;8066;48.776;11.384;2022-07-26T11:49:08;42.40;23.40
15934;DHT22;8066;48.776;11.384;2022-07-26T11:51:39;42.10;23.30
15934;DHT22;8066;48.776;11.384;2022-07-26T11:54:13;41.80;23.50
15934;DHT22;8066;48.776;11.384;2022-07-26T11:56:49;41.50;24.00
15934;DHT22;8066;48.776;11.384;2022-07-26T11:59:22;41.60;23.80
15934;DHT22;8066;48.776;11.384;2022-07-26T12:01:51;41.80;24.00
15934;DHT22;8066;48.776;11.384;2022-07-26T12:04:20;42.10;24.10
15934;DHT22;8066;48.776;11.384;2022-07-26T12:06:48;42.30;23.90
15934;DHT22;8066;48.776;11.384;2022-07-26T12:09:30;42.50;23.50
15934;DHT22;8066;48.776;11.384;2022-07-26T12:11:58;42.50;22.80
15934;DHT22;8066;48.776;11.384;2022-07-26T12:14:29;42.50;23.10
15934;DHT22;8066;48.776;11.384;2022-07-26T12:16:57;42.50;22.90
15934;DHT22;8066;48.776;11.384;2022-07-26T12:19:28;42.60;23.20
15934;DHT22;8066;48.776;11.384;2022-07-26T12:21:57;42.80;23.00
15934;DHT22;8066;48.776;11.384;2022-07-26T12:24:40;43.00;23.10
15934;DHT22;8066;48.776;11.384;2022-07-26T12:27:10;43.20;22.40
15934;DHT22;8066;48.776;11.384;2022-07-26T12:29:41;43.20;22.30
15934;DHT22;8066;48.776;11.384;2022-07-26T12:32:11;43.10;21.70
15934;DHT22;8066;48.776;11.384;2022-07-26T12:34:53;42.90;21.70
15934;DHT22;8066;48.776;11.384;2022-07-26T12:37:22;42.60;21.60
15934;DHT22;8066;48.776;11.384;2022-07-26T12:40:02;42.50;22.20
15934;DHT22;8066;48.776;11.384;2022-07-26T12:42:32;42.30;21.90
15934;DHT22;8066;48.776;11.384;2022-07-26T12:45:03;42.20;22.30
15934;DHT22;8066;48.776;11.384;2022-07-26T12:47:33;42.10;22.10
15934;DHT22;8066;48.776;11.384;2022-07-26T12:50:00;41.90;22.10
15934;DHT22;8066;48.776;11.384;2022-07-26T12:52:28;41.90;22.30
15934;DHT22;8066;48.776;11.384;2022-07-26T12:54:55;42.10;22.30
15934;DHT22;8066;48.776;11.384;2022-07-26T12:57:22;42.40;22.20
15934;DHT22;8066;48.776;11.384;2022-07-26T12:59:49;42.60;22.00
15934;DHT22;8066;48.776;11.384;2022-07-26T13:02:18;42.80;21.70
15934;DHT22;8066;48.776;11.384;2022-07-26T13:04:46;42.80;21.50
15934;DHT22;8066;48.776;11.384;2022-07-26T13:07:15;42.90;21.60
15934;DHT22;8066;48.776;11.384;2022-07-26T13:09:43;42.90;21.30
15934;DHT22;8066;48.776;11.384;2022-07-26T13:12:11;43.00;21.80
15934;DHT22;8066;48.776;11.384;2022-07-26T13:14:40;43.10;21.20
15934;DHT22;8066;48.776;11.384;2022-07-26T13:17:08;43.20;21.00
15934;DHT22;8066;48.776;11.384;2022-07-26T13:19:37;43.30;20.80
15934;DHT22;8066;48.776;11.384;2022-07-26T13:22:05;43.30;20.40
15934;DHT22;8066;48.776;11.384;2022-07-26T13:24:34;43.10;20.20
15934;DHT22;8066;48.776;11.384;2022-07-26T13:27:03;42.80;20.30
15934;DHT22;8066;48.776;11.384;2022-07-26T13:29:31;42.50;20.20
15934;DHT22;8066;48.776;11.384;2022-07-26T13:31:58;42.20;20.30
15934;DHT22;8066;48.776;11.384;2022-07-26T13:34:26;41.70;20.30
15934;DHT22;8066;48.776;11.384;2022-07-26T13:36:56;41.30;20.30
15934;DHT22;8066;48.776;11.384;2022-07-26T13:39:24;40.90;20.50
15934;DHT22;8066;48.776;11.384;2022-07-26T13:41:52;40.40;21.20
15934;DHT22;8066;48.776;11.384;2022-07-26T13:44:19;40.00;20.80
15934;DHT22;8066;48.776;11.384;2022-07-26T13:46:47;39.70;21.00
15934;DHT22;8066;48.776;11.384;2022-07-26T13:49:13;39.30;21.10
15934;DHT22;8066;48.776;11.384;2022-07-26T13:51:41;39.00;21.20
15934;DHT22;8066;48.776;11.384;2022-07-26T13:54:26;38.70;21.20
15934;DHT22;8066;48.776;11.384;2022-07-26T13:56:55;38.40;21.30
15934;DHT22;8066;48.776;11.384;2022-07-26T13:59:23;38.20;21.60
15934;DHT22;8066;48.776;11.384;2022-07-26T14:01:50;38.10;21.90
15934;DHT22;8066;48.776;11.384;2022-07-26T14:04:18;37.80;21.90
15934;DHT22;8066;48.776;11.384;2022-07-26T14:06:45;37.70;22.10
15934;DHT22;8066;48.776;11.384;2022-07-26T14:09:13;37.60;22.10
15934;DHT22;8066;48.776;11.384;2022-07-26T14:11:42;37.40;22.20
15934;DHT22;8066;48.776;11.384;2022-07-26T14:14:09;37.30;22.30
15934;DHT22;8066;48.776;11.384;2022-07-26T14:16:37;37.20;22.40
15934;DHT22;8066;48.776;11.384;2022-07-26T14:19:04;37.10;22.40
15934;DHT22;8066;48.776;11.384;2022-07-26T14:21:32;37.10;22.40
15934;DHT22;8066;48.776;11.384;2022-07-26T14:24:00;37.00;22.40
15934;DHT22;8066;48.776;11.384;2022-07-26T14:26:28;36.90;22.40
15934;DHT22;8066;48.776;11.384;2022-07-26T14:28:56;36.90;22.50
15934;DHT22;8066;48.776;11.384;2022-07-26T14:31:23;36.80;22.40
15934;DHT22;8066;48.776;11.384;2022-07-26T14:33:51;36.80;22.40
15934;DHT22;8066;48.776;11.384;2022-07-26T14:36:18;36.70;22.40
15934;DHT22;8066;48.776;11.384;2022-07-26T14:38:45;36.60;22.50
15934;DHT22;8066;48.776;11.384;2022-07-26T14:41:14;36.50;22.50
15934;DHT22;8066;48.776;11.384;2022-07-26T14:43:41;36.50;23.10
15934;DHT22;8066;48.776;11.384;2022-07-26T14:46:11;36.30;22.50
15934;DHT22;8066;48.776;11.384;2022-07-26T14:48:38;36.30;22.60
15934;DHT22;8066;48.776;11.384;2022-07-26T14:51:05;36.30;22.70
15934;DHT22;8066;48.776;11.384;2022-07-26T14:53:32;36.20;22.80
15934;DHT22;8066;48.776;11.384;2022-07-26T14:55:59;36.20;22.80
15934;DHT22;8066;48.776;11.384;2022-07-26T14:58:26;36.10;22.90
15934;DHT22;8066;48.776;11.384;2022-07-26T15:00:53;36.10;22.90
15934;DHT22;8066;48.776;11.384;2022-07-26T15:03:21;36.00;22.90
15934;DHT22;8066;48.776;11.384;2022-07-26T15:05:48;36.00;23.00
15934;DHT22;8066;48.776;11.384;2022-07-26T15:08:15;36.00;23.00
15934;DHT22;8066;48.776;11.384;2022-07-26T15:10:42;35.90;23.10
15934;DHT22;8066;48.776;11.384;2022-07-26T15:13:09;35.80;23.10
15934;DHT22;8066;48.776;11.384;2022-07-26T15:15:37;35.80;23.20
15934;DHT22;8066;48.776;11.384;2022-07-26T15:18:04;35.70;23.20
15934;DHT22;8066;48.776;11.384;2022-07-26T15:20:32;35.60;23.10
15934;DHT22;8066;48.776;11.384;2022-07-26T15:22:59;35.50;23.20
15934;DHT22;8066;48.776;11.384;2022-07-26T15:25:26;35.40;23.20
15934;DHT22;8066;48.776;11.384;2022-07-26T15:27:53;35.30;23.30
15934;DHT22;8066;48.776;11.384;2022-07-26T15:30:20;35.20;23.40
15934;DHT22;8066;48.776;11.384;2022-07-26T15:32:47;35.20;23.50
15934;DHT22;8066;48.776;11.384;2022-07-26T15:35:14;35.00;23.50
15934;DHT22;8066;48.776;11.384;2022-07-26T15:37:43;35.00;23.50
15934;DHT22;8066;48.776;11.384;2022-07-26T15:40:13;34.80;23.60